Time;durP1;ratioP1;P1;durP2;ratioP2;P2;SDS_P1;SDS_P2;PMS_P1;PMS_P2;Temp;Humidity;BMP_temperature;BMP_pressure;BME280_temperature;BME280_humidity;BME280_pressure;Samples;Min_cycle;Max_cycle;Signal;HPM_P1;HPM_P2
2022/07/28 00:00:11;;;;;;;5.37;1.70;;;;;;;14.23;85.10;101108.50;688120;28;1202;-43
2022/07/28 00:00:32;;;;;;;3.85;1.50;;;;;;;14.24;85.02;101102.34;686078;28;1030;-44
2022/07/28 00:00:53;;;;;;;3.88;1.35;;;;;;;14.21;85.11;101105.03;684729;28;4361;-42
2022/07/28 00:01:13;;;;;;;3.40;1.38;;;;;;;14.20;85.57;101100.63;685906;28;1313;-43
2022/07/28 00:01:33;;;;;;;4.17;1.60;;;;;;;14.18;85.28;101093.66;689542;28;1341;-43
2022/07/28 00:01:54;;;;;;;4.37;1.50;;;;;;;14.20;85.03;101098.00;688564;28;1377;-44
2022/07/28 00:02:14;;;;;;;3.70;1.40;;;;;;;14.16;85.35;101096.31;688505;28;1257;-43
2022/07/28 00:02:35;;;;;;;3.27;1.40;;;;;;;14.13;85.15;101097.22;691675;28;1265;-43
2022/07/28 00:02:55;;;;;;;4.63;1.70;;;;;;;14.11;85.63;101099.00;688909;28;1505;-44
2022/07/28 00:03:16;;;;;;;4.77;1.63;;;;;;;14.12;85.39;101099.88;690800;28;1091;-45
2022/07/28 00:03:36;;;;;;;4.22;1.50;;;;;;;14.12;84.92;101100.75;692175;28;1218;-44
2022/07/28 00:03:56;;;;;;;5.67;1.57;;;;;;;14.11;84.88;101093.75;692145;28;4674;-43
2022/07/28 00:04:17;;;;;;;4.05;1.63;;;;;;;14.14;85.72;101098.97;689861;28;1071;-43
2022/07/28 00:04:37;;;;;;;4.10;1.70;;;;;;;14.17;85.11;101091.94;688614;28;1493;-44
2022/07/28 00:04:57;;;;;;;3.33;1.70;;;;;;;14.15;85.79;101089.34;689785;28;963;-43
2022/07/28 00:05:18;;;;;;;3.47;1.40;;;;;;;14.13;85.48;101096.34;687224;28;1194;-43
2022/07/28 00:05:39;;;;;;;3.43;1.40;;;;;;;14.16;85.17;101101.56;686036;28;1161;-44
2022/07/28 00:06:00;;;;;;;3.80;1.30;;;;;;;14.20;84.86;101094.53;686064;28;1270;-45
2022/07/28 00:06:20;;;;;;;3.65;1.40;;;;;;;14.22;83.90;101096.25;686827;28;1171;-45
2022/07/28 00:06:40;;;;;;;2.90;1.33;;;;;;;14.23;84.58;101097.09;686668;28;1180;-44
2022/07/28 00:07:01;;;;;;;4.37;1.47;;;;;;;14.30;83.70;101101.38;684967;28;4480;-43
2022/07/28 00:07:22;;;;;;;3.65;1.40;;;;;;;14.35;83.69;101096.09;688958;28;1325;-43
2022/07/28 00:07:42;;;;;;;3.90;1.50;;;;;;;14.31;83.43;101093.47;688938;28;1283;-44
2022/07/28 00:08:03;;;;;;;3.22;1.40;;;;;;;14.30;84.04;101099.66;688437;28;1293;-44
2022/07/28 00:08:23;;;;;;;4.95;1.65;;;;;;;14.36;83.90;101100.44;691390;28;1329;-47
2022/07/28 00:08:44;;;;;;;4.60;1.53;;;;;;;14.33;83.42;101098.75;690451;28;906;-44
2022/07/28 00:09:04;;;;;;;3.88;1.33;;;;;;;14.39;83.20;101092.53;691030;28;1060;-45
2022/07/28 00:09:25;;;;;;;4.60;1.50;;;;;;;14.41;83.57;101096.00;691831;28;1293;-43
2022/07/28 00:09:45;;;;;;;4.22;1.38;;;;;;;14.42;82.67;101092.47;689283;28;1420;-43
2022/07/28 00:10:07;;;;;;;3.93;1.47;;;;;;;14.44;82.53;101090.69;688579;28;4771;-45
2022/07/28 00:10:27;;;;;;;5.65;1.30;;;;;;;14.39;84.33;101095.16;689504;28;1405;-45
2022/07/28 00:10:47;;;;;;;4.47;1.40;;;;;;;14.35;85.19;101091.69;689377;28;1143;-47
2022/07/28 00:11:08;;;;;;;4.55;1.50;;;;;;;14.40;84.80;101086.34;688917;28;1354;-46
2022/07/28 00:11:28;;;;;;;3.97;1.70;;;;;;;14.41;83.94;101096.88;686837;28;1247;-44
2022/07/28 00:11:51;;;;;;;4.93;1.55;;;;;;;14.41;83.74;101090.72;688658;28;1512;-44
2022/07/28 00:12:12;;;;;;;3.70;1.50;;;;;;;14.39;83.82;101093.38;689673;28;1112;-45
2022/07/28 00:12:32;;;;;;;3.07;1.40;;;;;;;14.37;83.97;101094.28;687722;28;1347;-43
2022/07/28 00:12:53;;;;;;;4.50;1.45;;;;;;;14.39;84.27;101090.75;689218;28;4306;-43
2022/07/28 00:13:13;;;;;;;4.63;1.60;;;;;;;14.36;83.79;101092.53;689580;28;1357;-44
2022/07/28 00:13:34;;;;;;;4.65;1.58;;;;;;;14.39;83.79;101089.91;688771;28;1298;-44
2022/07/28 00:13:54;;;;;;;4.90;1.47;;;;;;;14.40;83.98;101094.25;688583;28;1302;-44
2022/07/28 00:14:15;;;;;;;6.20;1.50;;;;;;;14.40;84.52;101094.25;689075;28;1068;-44
2022/07/28 00:14:38;;;;;;;4.75;1.45;;;;;;;14.39;84.83;101088.13;688133;28;1223;-43
2022/07/28 00:14:58;;;;;;;3.83;1.40;;;;;;;14.39;84.31;101089.91;688450;28;1270;-43
2022/07/28 00:15:18;;;;;;;4.30;1.50;;;;;;;14.42;83.71;101089.84;688273;28;1150;-45
2022/07/28 00:15:39;;;;;;;5.43;1.50;;;;;;;14.39;84.80;101082.00;688088;28;1262;-43
2022/07/28 00:15:59;;;;;;;3.45;1.40;;;;;;;14.37;85.58;101086.41;689676;28;950;-45
2022/07/28 00:16:19;;;;;;;4.00;1.40;;;;;;;14.35;84.96;101089.06;686834;28;4391;-44
2022/07/28 00:16:40;;;;;;;3.40;1.40;;;;;;;14.36;84.68;101087.28;690941;28;887;-46
2022/07/28 00:17:01;;;;;;;3.40;1.30;;;;;;;14.34;84.70;101084.69;688086;28;792;-44
2022/07/28 00:17:21;;;;;;;2.88;1.30;;;;;;;14.30;84.38;101102.28;688911;28;1064;-44
2022/07/28 00:17:42;;;;;;;3.90;1.33;;;;;;;14.30;85.00;101075.97;689026;28;903;-45
2022/07/28 00:18:02;;;;;;;5.37;1.40;;;;;;;14.29;85.50;101079.50;689671;28;1141;-46
2022/07/28 00:18:23;;;;;;;4.97;1.40;;;;;;;14.35;85.72;101090.81;689556;28;887;-43
2022/07/28 00:18:44;;;;;;;5.30;1.57;;;;;;;14.33;85.04;101077.72;691455;28;1262;-44
2022/07/28 00:19:04;;;;;;;3.83;1.38;;;;;;;14.29;85.38;101087.38;691603;28;1606;-45
2022/07/28 00:19:24;;;;;;;3.67;1.40;;;;;;;14.33;85.63;101082.97;691323;28;2064;-44
2022/07/28 00:19:45;;;;;;;3.00;1.40;;;;;;;14.39;84.94;101084.63;690624;28;832;-45
2022/07/28 00:20:06;;;;;;;3.10;1.30;;;;;;;14.35;85.09;101075.91;690826;28;1208;-47
2022/07/28 00:20:29;;;;;;;3.80;1.40;;;;;;;14.30;84.76;101083.88;691147;28;975;-44
2022/07/28 00:20:49;;;;;;;4.43;1.58;;;;;;;14.27;85.48;101089.19;688063;28;943;-43
2022/07/28 00:21:10;;;;;;;4.33;1.57;;;;;;;14.25;85.39;101090.94;688912;28;955;-45
2022/07/28 00:21:30;;;;;;;2.75;1.23;;;;;;;14.25;84.41;101087.44;685823;28;1222;-44
2022/07/28 00:21:51;;;;;;;4.00;1.33;;;;;;;14.26;84.58;101078.66;685470;28;757;-47
2022/07/28 00:22:11;;;;;;;4.57;1.50;;;;;;;14.30;85.04;101083.88;685818;28;4295;-43
2022/07/28 00:22:32;;;;;;;3.63;1.50;;;;;;;14.42;84.41;101081.97;686999;28;1562;-44
2022/07/28 00:22:52;;;;;;;3.87;1.50;;;;;;;14.37;85.29;101083.78;688861;28;828;-44
2022/07/28 00:23:12;;;;;;;4.17;1.50;;;;;;;14.39;85.18;101080.22;689158;28;881;-43
2022/07/28 00:23:33;;;;;;;4.00;1.30;;;;;;;14.46;84.15;101086.28;692891;28;843;-44
2022/07/28 00:23:53;;;;;;;3.45;1.40;;;;;;;14.43;83.72;101087.19;691392;28;780;-44
2022/07/28 00:24:14;;;;;;;5.27;1.43;;;;;;;14.36;84.92;101082.91;688114;28;1627;-44
2022/07/28 00:24:36;;;;;;;3.90;1.40;;;;;;;14.37;84.96;101083.78;688144;28;966;-42
2022/07/28 00:24:57;;;;;;;4.57;1.60;;;;;;;14.41;84.91;101086.34;688341;28;860;-42
2022/07/28 00:25:17;;;;;;;3.72;1.40;;;;;;;14.41;84.66;101083.72;688143;28;4373;-43
2022/07/28 00:25:38;;;;;;;3.70;1.42;;;;;;;14.40;84.83;101078.47;689521;28;932;-43
2022/07/28 00:25:58;;;;;;;4.63;1.47;;;;;;;14.38;85.65;101085.53;687857;28;1081;-42
2022/07/28 00:26:19;;;;;;;5.25;1.58;;;;;;;14.43;84.67;101084.56;689478;28;1050;-42
2022/07/28 00:26:39;;;;;;;4.80;1.70;;;;;;;14.45;83.69;101081.91;687744;28;1343;-43
2022/07/28 00:26:59;;;;;;;4.50;1.40;;;;;;;14.46;83.74;101081.88;688495;28;789;-44
2022/07/28 00:27:20;;;;;;;3.23;1.40;;;;;;;14.47;84.06;101081.00;684935;28;1209;-42
2022/07/28 00:27:40;;;;;;;3.83;1.40;;;;;;;14.44;83.92;101083.69;684997;28;1098;-43
2022/07/28 00:28:01;;;;;;;4.60;1.50;;;;;;;14.39;83.70;101085.50;685614;28;4490;-42
2022/07/28 00:28:21;;;;;;;5.37;1.50;;;;;;;14.39;84.63;101079.38;685939;28;1102;-43
2022/07/28 00:28:42;;;;;;;4.63;1.50;;;;;;;14.33;84.00;101072.44;689160;28;868;-44
2022/07/28 00:29:03;;;;;;;3.97;1.37;;;;;;;14.29;83.88;101076.00;689992;28;732;-42
2022/07/28 00:29:23;;;;;;;4.60;1.50;;;;;;;14.30;84.01;101081.25;689020;28;1484;-43
2022/07/28 00:29:44;;;;;;;4.63;1.50;;;;;;;14.31;84.28;101075.06;688846;28;852;-42
2022/07/28 00:30:05;;;;;;;3.83;1.50;;;;;;;14.36;84.93;101080.28;685120;28;1003;-42
2022/07/28 00:30:25;;;;;;;4.03;1.30;;;;;;;14.32;84.89;101081.22;686137;28;860;-42
2022/07/28 00:30:46;;;;;;;3.20;1.30;;;;;;;14.38;85.28;101080.25;686201;28;761;-42
2022/07/28 00:31:06;;;;;;;4.43;1.40;;;;;;;14.35;84.69;101075.91;680863;28;4312;-42
2022/07/28 00:31:27;;;;;;;3.90;1.40;;;;;;;14.35;83.49;101070.66;679959;28;817;-42
2022/07/28 00:31:47;;;;;;;3.05;1.23;;;;;;;14.35;83.13;101069.78;680823;28;928;-42
2022/07/28 00:32:07;;;;;;;3.90;1.33;;;;;;;14.39;82.93;101076.75;685021;28;1225;-43
2022/07/28 00:32:28;;;;;;;4.20;1.50;;;;;;;14.37;83.18;101071.50;686705;28;928;-43
2022/07/28 00:32:48;;;;;;;5.20;1.43;;;;;;;14.37;83.09;101070.63;686312;28;991;-42
2022/07/28 00:33:08;;;;;;;3.53;1.30;;;;;;;14.43;83.19;101073.19;687915;28;951;-42
2022/07/28 00:33:29;;;;;;;3.70;1.33;;;;;;;14.42;83.56;101076.69;690382;28;813;-42
2022/07/28 00:33:49;;;;;;;4.27;1.40;;;;;;;14.37;85.32;101074.13;688133;28;880;-44
2022/07/28 00:34:10;;;;;;;4.35;1.70;;;;;;;14.40;85.02;101081.09;687786;28;4241;-43
2022/07/28 00:34:31;;;;;;;3.72;1.42;;;;;;;14.44;84.22;101070.53;689140;28;1057;-42
2022/07/28 00:34:51;;;;;;;3.27;1.53;;;;;;;14.44;84.11;101072.25;689717;28;1055;-43
2022/07/28 00:35:12;;;;;;;3.72;2.10;;;;;;;14.44;84.45;101062.63;687926;28;1001;-42
2022/07/28 00:35:32;;;;;;;3.77;1.47;;;;;;;14.41;83.45;101073.22;688894;28;1598;-44
2022/07/28 00:35:52;;;;;;;3.78;1.38;;;;;;;14.42;82.52;101071.44;689894;28;804;-43
2022/07/28 00:36:13;;;;;;;5.07;1.50;;;;;;;14.40;82.43;101075.84;688318;28;911;-43
2022/07/28 00:36:33;;;;;;;5.63;1.60;;;;;;;14.40;83.16;101078.47;689556;28;945;-45
2022/07/28 00:36:53;;;;;;;4.43;1.40;;;;;;;14.39;83.13;101072.34;690313;28;896;-42
2022/07/28 00:37:14;;;;;;;4.57;1.50;;;;;;;14.39;84.13;101074.13;684920;28;4287;-43
2022/07/28 00:37:34;;;;;;;3.35;1.50;;;;;;;14.45;83.32;101069.66;688776;28;923;-42
2022/07/28 00:37:54;;;;;;;4.57;1.40;;;;;;;14.47;83.39;101070.47;685481;28;1176;-45
2022/07/28 00:38:15;;;;;;;4.05;1.30;;;;;;;14.46;83.99;101074.00;685986;28;1321;-44
2022/07/28 00:38:36;;;;;;;3.17;1.23;;;;;;;14.42;84.80;101074.06;686317;28;868;-42
2022/07/28 00:38:56;;;;;;;3.17;1.30;;;;;;;14.40;84.69;101075.84;685591;28;5073;-43
2022/07/28 00:39:16;;;;;;;4.97;1.40;;;;;;;14.35;84.53;101077.69;688584;28;1086;-43
2022/07/28 00:39:37;;;;;;;5.05;1.52;;;;;;;14.37;84.50;101078.50;687607;28;1454;-44
2022/07/28 00:39:57;;;;;;;3.20;1.40;;;;;;;14.38;85.50;101075.00;688366;28;904;-45
2022/07/28 00:40:18;;;;;;;3.38;1.30;;;;;;;14.37;84.88;101068.88;687349;28;4733;-42
2022/07/28 00:41:19;;;;;;;3.38;1.70;;;;;;;14.37;84.13;101068.88;688399;28;1217;-45
2022/07/28 00:41:41;;;;;;;4.25;1.70;;;;;;;14.35;84.64;101073.28;685968;28;844;-42
2022/07/28 00:42:01;;;;;;;4.72;1.33;;;;;;;14.34;84.78;101071.53;690097;28;1074;-42
2022/07/28 00:42:22;;;;;;;4.43;1.30;;;;;;;14.33;84.53;101079.44;691450;28;1229;-44
2022/07/28 00:42:42;;;;;;;5.07;1.42;;;;;;;14.36;84.15;101068.88;686969;28;839;-44
2022/07/28 00:43:03;;;;;;;4.43;1.50;;;;;;;14.37;84.50;101071.50;687381;28;4299;-43
2022/07/28 00:43:23;;;;;;;4.00;1.40;;;;;;;14.34;84.47;101068.91;688432;28;1401;-42
2022/07/28 00:43:46;;;;;;;3.93;1.57;;;;;;;14.34;84.74;101071.53;689548;28;1154;-42
2022/07/28 00:44:07;;;;;;;2.25;1.15;;;;;;;14.33;84.40;101067.19;689838;28;2079;-43
2022/07/28 00:44:28;;;;;;;3.78;1.30;;;;;;;14.36;84.45;101067.13;692145;28;1078;-43
2022/07/28 00:44:48;;;;;;;4.75;1.40;;;;;;;14.39;84.42;101067.09;692164;28;1454;-42
2022/07/28 00:45:09;;;;;;;4.33;1.40;;;;;;;14.37;84.59;101066.25;688466;28;1537;-45
2022/07/28 00:45:30;;;;;;;2.67;1.20;;;;;;;14.35;84.95;101067.16;689357;28;1130;-43
2022/07/28 00:45:50;;;;;;;2.63;1.27;;;;;;;14.34;84.76;101068.03;688331;28;862;-43
2022/07/28 00:46:12;;;;;;;4.37;1.40;;;;;;;14.33;84.42;101067.19;688276;28;4884;-42
2022/07/28 00:46:33;;;;;;;3.38;1.45;;;;;;;14.40;83.41;101067.94;688396;28;1324;-45
2022/07/28 00:46:53;;;;;;;3.97;1.42;;;;;;;14.38;83.52;101070.59;688982;28;1276;-43
2022/07/28 00:47:14;;;;;;;3.60;1.52;;;;;;;14.43;84.52;101067.91;689211;28;1237;-43
2022/07/28 00:47:34;;;;;;;3.30;1.40;;;;;;;14.47;84.21;101069.63;690302;28;1099;-43
2022/07/28 00:47:55;;;;;;;4.85;1.40;;;;;;;14.48;84.16;101066.06;687999;28;1347;-44
2022/07/28 00:48:15;;;;;;;4.30;1.40;;;;;;;14.46;83.52;101067.88;689071;28;1294;-43
2022/07/28 00:48:37;;;;;;;4.10;1.33;;;;;;;14.46;83.67;101065.25;688839;28;1355;-42
2022/07/28 00:48:58;;;;;;;3.97;1.20;;;;;;;14.48;83.86;101063.44;688456;28;1165;-44
2022/07/28 00:49:18;;;;;;;2.70;1.20;;;;;;;14.46;83.48;101066.09;687853;28;4245;-44
2022/07/28 00:49:39;;;;;;;3.65;1.42;;;;;;;14.45;83.25;101060.88;690383;28;1050;-43
2022/07/28 00:50:00;;;;;;;3.97;1.50;;;;;;;14.47;83.56;101065.22;690248;28;1071;-44
2022/07/28 00:50:21;;;;;;;3.92;1.55;;;;;;;14.49;83.60;101065.19;687627;28;1182;-44
2022/07/28 00:50:42;;;;;;;4.15;1.30;;;;;;;14.53;81.98;101068.66;688401;28;1201;-42
2022/07/28 00:51:03;;;;;;;3.50;1.40;;;;;;;14.50;82.54;101061.69;687183;28;1187;-42
2022/07/28 00:51:25;;;;;;;4.10;1.50;;;;;;;14.45;83.44;101068.75;688195;28;1015;-42
2022/07/28 00:51:47;;;;;;;4.70;1.70;;;;;;;14.43;82.85;101055.63;688272;28;1096;-43
2022/07/28 00:52:09;;;;;;;3.00;1.30;;;;;;;14.45;82.85;101060.88;687735;28;4400;-42
2022/07/28 00:52:30;;;;;;;3.75;1.40;;;;;;;14.47;82.03;101054.69;691171;28;1078;-42
2022/07/28 00:52:51;;;;;;;3.63;1.50;;;;;;;14.46;82.76;101057.34;692390;28;1043;-43
2022/07/28 00:53:11;;;;;;;3.30;1.60;;;;;;;14.48;83.08;101064.34;692793;28;1495;-44
2022/07/28 00:53:32;;;;;;;5.07;1.53;;;;;;;14.53;82.49;101055.50;692050;28;891;-42
2022/07/28 00:53:53;;;;;;;4.53;1.53;;;;;;;14.53;82.47;101053.72;692790;28;876;-42
2022/07/28 00:54:13;;;;;;;4.18;1.48;;;;;;;14.56;81.83;101053.69;689506;28;1040;-43
2022/07/28 00:54:35;;;;;;;3.40;1.50;;;;;;;14.58;81.65;101057.16;691220;28;1311;-43
2022/07/28 00:54:57;;;;;;;3.70;1.58;;;;;;;14.59;82.01;101048.38;689411;28;1159;-43
2022/07/28 00:55:19;;;;;;;3.55;1.50;;;;;;;14.61;82.83;101057.13;690244;28;4320;-42
2022/07/28 00:55:40;;;;;;;3.65;1.30;;;;;;;14.59;82.08;101061.53;689895;28;1091;-43
2022/07/28 00:56:01;;;;;;;3.55;1.40;;;;;;;14.54;81.88;101055.47;693104;28;1124;-42
2022/07/28 00:56:21;;;;;;;4.37;1.20;;;;;;;14.55;82.09;101059.84;691365;28;1104;-43
2022/07/28 00:56:42;;;;;;;2.53;1.20;;;;;;;14.54;82.48;101055.47;692524;28;1391;-43
2022/07/28 00:57:02;;;;;;;4.07;1.40;;;;;;;14.54;81.50;101055.47;692900;28;1468;-45
2022/07/28 00:57:23;;;;;;;4.07;1.30;;;;;;;14.55;82.04;101051.97;689917;28;1288;-43
2022/07/28 00:57:43;;;;;;;6.30;1.40;;;;;;;14.54;82.21;101054.59;690323;28;892;-45
2022/07/28 00:58:04;;;;;;;4.90;1.50;;;;;;;14.57;82.17;101051.94;686585;28;4608;-44
2022/07/28 00:58:26;;;;;;;3.90;1.40;;;;;;;14.52;82.78;101054.63;683626;28;979;-42
2022/07/28 00:58:47;;;;;;;4.57;1.52;;;;;;;14.55;82.62;101057.22;683606;28;1581;-43
2022/07/28 00:59:08;;;;;;;4.70;1.48;;;;;;;14.52;82.43;101056.38;685109;28;1183;-43
2022/07/28 00:59:29;;;;;;;4.93;1.42;;;;;;;14.49;82.87;101049.41;688593;28;1978;-45
2022/07/28 00:59:50;;;;;;;4.65;1.60;;;;;;;14.46;84.92;101057.34;688405;28;1172;-43
2022/07/28 01:00:11;;;;;;;3.57;1.53;;;;;;;14.46;83.13;101058.22;690915;28;1273;-43
2022/07/28 01:00:31;;;;;;;2.97;1.42;;;;;;;14.47;83.08;101059.09;689427;28;1186;-44
2022/07/28 01:00:52;;;;;;;2.83;1.40;;;;;;;14.50;83.97;101059.03;689358;28;1028;-43
2022/07/28 01:01:16;;;;;;;3.92;1.50;;;;;;;14.48;83.87;101052.91;688801;28;4450;-44
2022/07/28 01:01:36;;;;;;;3.42;1.40;;;;;;;14.51;83.84;101050.25;690437;28;1372;-42
2022/07/28 01:01:57;;;;;;;3.35;1.40;;;;;;;14.47;83.91;101054.69;690663;28;1329;-43
2022/07/28 01:02:18;;;;;;;3.50;1.67;;;;;;;14.46;83.84;101058.22;689421;28;1416;-45
2022/07/28 01:02:38;;;;;;;4.07;1.50;;;;;;;14.48;83.91;101051.19;690618;28;1131;-42
2022/07/28 01:02:59;;;;;;;4.63;1.50;;;;;;;14.52;83.79;101057.25;690492;28;1134;-42
2022/07/28 01:03:20;;;;;;;4.37;1.73;;;;;;;14.45;84.06;101050.34;690949;28;1093;-44
2022/07/28 01:03:44;;;;;;;3.78;1.50;;;;;;;14.42;83.87;101050.38;688887;28;1084;-42
2022/07/28 01:04:05;;;;;;;3.25;1.35;;;;;;;14.39;83.02;101055.72;690157;28;4402;-43
2022/07/28 01:04:25;;;;;;;4.63;1.67;;;;;;;14.37;83.41;101061.00;689253;28;1090;-42
2022/07/28 01:04:46;;;;;;;4.07;1.40;;;;;;;14.43;82.28;101049.50;686654;28;1080;-45
2022/07/28 01:05:07;;;;;;;3.88;1.40;;;;;;;14.42;83.10;101050.38;687070;28;1131;-42
2022/07/28 01:05:44;;;;;;;3.97;1.27;;;;;;;14.40;83.20;101053.06;687572;28;1130;-46
2022/07/28 01:06:10;;;;;;;5.63;1.50;;;;;;;14.52;82.59;101057.25;685411;28;1064;-42
2022/07/28 01:06:31;;;;;;;5.30;1.45;;;;;;;14.51;82.58;101055.53;689807;28;1115;-43
2022/07/28 01:06:57;;;;;;;3.97;1.42;;;;;;;14.51;82.72;101055.53;692721;28;1071;-43
2022/07/28 01:07:31;;;;;;;5.70;1.58;;;;;;;14.59;82.53;101053.66;690781;28;4492;-42
2022/07/28 01:08:03;;;;;;;5.00;1.60;;;;;;;14.51;82.89;101050.25;689429;28;1289;-44
2022/07/28 01:08:56;;;;;;;3.78;1.15;;;;;;;14.52;82.60;101054.63;689785;28;999;-43
2022/07/28 01:09:35;;;;;;;5.13;1.52;;;;;;;14.43;84.11;101058.25;687499;28;1339;-42
2022/07/28 01:10:07;;;;;;;4.00;1.50;;;;;;;14.54;83.30;101051.97;689833;28;1195;-42
2022/07/28 01:10:50;;;;;;;4.50;1.40;;;;;;;14.50;83.06;101058.19;687957;28;4993;-44
2022/07/28 01:11:20;;;;;;;3.88;1.33;;;;;;;14.47;83.76;101048.56;687312;28;1052;-42
2022/07/28 01:11:53;;;;;;;3.65;1.50;;;;;;;14.43;84.07;101046.88;687969;28;1114;-43
2022/07/28 01:12:31;;;;;;;3.55;1.40;;;;;;;14.39;84.49;101050.44;689472;28;1234;-42
2022/07/28 01:13:14;;;;;;;5.00;1.40;;;;;;;14.41;84.58;101053.91;690495;28;1152;-42
2022/07/28 01:13:34;;;;;;;4.03;1.60;;;;;;;14.41;84.43;101043.38;689229;28;4815;-42
2022/07/28 01:14:09;;;;;;;4.00;1.47;;;;;;;14.37;84.43;101052.22;690400;28;1009;-42
2022/07/28 01:14:38;;;;;;;3.13;1.30;;;;;;;14.37;84.43;101047.84;688119;28;924;-42
2022/07/28 01:15:15;;;;;;;4.07;1.60;;;;;;;14.40;83.63;101052.16;687791;28;797;-42
2022/07/28 01:15:42;;;;;;;3.83;1.50;;;;;;;14.40;83.85;101054.78;690049;28;1007;-45
2022/07/28 01:16:05;;;;;;;3.72;1.30;;;;;;;14.43;83.34;101046.88;692280;28;4454;-41
2022/07/28 01:16:27;;;;;;;4.82;1.50;;;;;;;14.44;82.64;101053.84;690540;28;990;-42
2022/07/28 01:17:15;;;;;;;4.75;1.50;;;;;;;14.40;82.40;101046.91;691924;28;1047;-42
2022/07/28 01:18:01;;;;;;;3.22;1.27;;;;;;;14.36;83.78;101047.84;691678;28;1097;-42
2022/07/28 01:18:24;;;;;;;4.85;1.50;;;;;;;14.37;83.85;101042.59;690867;28;1823;-41
2022/07/28 01:18:52;;;;;;;4.32;1.50;;;;;;;14.30;84.28;101044.44;689714;28;961;-42
2022/07/28 01:19:32;;;;;;;3.60;1.38;;;;;;;14.25;84.86;101054.13;690354;28;5437;-42
2022/07/28 01:20:20;;;;;;;3.60;1.38;;;;;;;14.22;83.78;101046.28;691248;28;1281;-47
2022/07/28 01:20:46;;;;;;;4.03;1.60;;;;;;;14.27;84.35;101043.59;691374;28;1157;-44
2022/07/28 01:21:16;;;;;;;3.95;1.60;;;;;;;14.36;83.40;101045.19;687712;28;1167;-42
2022/07/28 01:21:41;;;;;;;4.63;1.40;;;;;;;14.38;83.37;101043.44;688730;28;1339;-43
2022/07/28 01:22:04;;;;;;;4.65;1.58;;;;;;;14.39;82.77;101048.66;687872;28;4267;-42
2022/07/28 01:22:28;;;;;;;4.38;1.38;;;;;;;14.48;82.66;101050.28;688626;28;1203;-45
2022/07/28 01:22:54;;;;;;;5.07;1.40;;;;;;;14.43;82.31;101046.88;689396;28;1055;-43
2022/07/28 01:23:30;;;;;;;5.10;1.35;;;;;;;14.51;81.58;101047.63;691155;28;979;-43
2022/07/28 01:24:08;;;;;;;4.32;1.60;;;;;;;14.51;82.47;101050.25;690923;28;1396;-43
2022/07/28 01:24:32;;;;;;;3.53;1.20;;;;;;;14.53;82.05;101045.84;693036;28;1193;-43
2022/07/28 01:25:04;;;;;;;5.45;1.52;;;;;;;14.51;82.08;101044.13;692219;28;1150;-43
2022/07/28 01:25:46;;;;;;;5.47;1.63;;;;;;;14.48;81.74;101043.28;690990;28;5648;-43
2022/07/28 01:26:40;;;;;;;4.78;1.55;;;;;;;14.47;83.02;101049.44;688503;28;1154;-43
2022/07/28 01:27:08;;;;;;;3.65;1.40;;;;;;;14.37;83.50;101052.22;689798;28;1099;-43
2022/07/28 01:27:49;;;;;;;3.80;1.40;;;;;;;14.37;83.10;101054.84;691326;28;1131;-43
2022/07/28 01:28:21;;;;;;;4.95;1.63;;;;;;;14.37;83.10;101058.38;687752;28;4325;-44
2022/07/28 01:29:11;;;;;;;3.38;1.38;;;;;;;14.35;83.46;101054.00;689449;28;1091;-43
2022/07/28 01:30:14;;;;;;;3.53;1.42;;;;;;;14.38;82.78;101052.19;689801;28;1170;-43
2022/07/28 01:30:44;;;;;;;4.60;1.38;;;;;;;14.36;83.24;101056.63;688707;28;1436;-43
2022/07/28 01:31:07;;;;;;;4.25;1.55;;;;;;;14.32;83.53;101054.91;688086;28;5030;-43
2022/07/28 01:31:38;;;;;;;5.05;1.60;;;;;;;14.27;83.85;101052.38;687393;28;2137;-43
2022/07/28 01:32:22;;;;;;;4.03;1.60;;;;;;;14.34;83.05;101052.25;690098;28;1254;-43
2022/07/28 01:32:49;;;;;;;4.82;1.42;;;;;;;14.36;82.37;101055.72;688732;28;1720;-43
2022/07/28 01:33:17;;;;;;;3.20;1.30;;;;;;;14.39;82.97;101050.44;691011;28;1065;-43
2022/07/28 01:33:46;;;;;;;4.07;1.50;;;;;;;14.43;83.03;101046.88;691303;28;1407;-42
2022/07/28 01:34:17;;;;;;;3.90;1.40;;;;;;;14.44;82.32;101049.47;689173;28;4306;-43
2022/07/28 01:34:48;;;;;;;5.20;1.55;;;;;;;14.45;82.53;101039.81;689543;28;1263;-43
2022/07/28 01:35:18;;;;;;;4.32;1.45;;;;;;;14.43;82.45;101046.88;689053;28;1271;-43
2022/07/28 01:35:46;;;;;;;4.38;1.40;;;;;;;14.42;82.85;101051.25;690295;28;984;-45
2022/07/28 01:36:13;;;;;;;5.10;1.40;;;;;;;14.46;82.50;101046.81;688557;28;1083;-42
2022/07/28 01:36:54;;;;;;;5.65;1.70;;;;;;;14.41;83.73;101048.66;689228;28;801;-44
2022/07/28 01:37:18;;;;;;;4.20;1.40;;;;;;;14.39;82.49;101043.41;688577;28;4511;-42
2022/07/28 01:37:43;;;;;;;4.72;1.50;;;;;;;14.45;82.67;101034.56;690411;28;1028;-43
2022/07/28 01:38:07;;;;;;;6.78;2.00;;;;;;;14.42;82.86;101045.13;686980;28;1072;-45
2022/07/28 01:38:31;;;;;;;4.38;1.60;;;;;;;14.39;82.10;101039.94;690574;28;1114;-45
2022/07/28 01:38:52;;;;;;;3.40;1.40;;;;;;;14.39;82.38;101046.03;688969;28;4819;-42
2022/07/28 01:39:15;;;;;;;6.18;1.73;;;;;;;14.42;81.84;101046.00;687099;28;1157;-43
2022/07/28 01:39:38;;;;;;;5.47;1.60;;;;;;;14.40;82.53;101044.28;686817;28;1959;-46
2022/07/28 01:40:04;;;;;;;3.95;1.45;;;;;;;14.37;83.89;101041.69;688072;28;1056;-44
2022/07/28 01:40:28;;;;;;;3.63;1.50;;;;;;;14.38;82.59;101041.66;688812;28;4775;-42
2022/07/28 01:40:51;;;;;;;4.15;1.42;;;;;;;14.44;82.61;101040.69;689571;28;1205;-42
2022/07/28 01:41:18;;;;;;;4.53;1.40;;;;;;;14.40;83.96;101036.38;689266;28;1092;-43
2022/07/28 01:41:42;;;;;;;4.80;1.70;;;;;;;14.41;84.19;101043.38;686902;28;1427;-44
2022/07/28 01:42:06;;;;;;;4.50;1.60;;;;;;;14.37;83.69;101041.69;688349;28;1217;-44
2022/07/28 01:42:34;;;;;;;3.80;1.45;;;;;;;14.37;83.92;101045.22;688643;28;1090;-42
2022/07/28 01:42:57;;;;;;;3.85;1.40;;;;;;;14.34;83.01;101037.34;688339;28;1342;-42
2022/07/28 01:43:21;;;;;;;4.50;1.52;;;;;;;14.30;82.99;101040.91;689637;28;4846;-42
2022/07/28 01:43:44;;;;;;;3.83;1.52;;;;;;;14.35;82.79;101043.50;688819;28;1745;-44
2022/07/28 01:44:09;;;;;;;4.03;1.65;;;;;;;14.44;82.65;101036.34;689343;28;1124;-44
2022/07/28 01:44:33;;;;;;;3.95;1.50;;;;;;;14.45;82.10;101042.44;686783;28;1274;-45
2022/07/28 01:44:56;;;;;;;4.97;1.50;;;;;;;14.39;82.31;101040.78;691224;28;1059;-44
2022/07/28 01:45:19;;;;;;;4.03;1.70;;;;;;;14.35;82.59;101040.88;688338;28;1210;-43
2022/07/28 01:45:42;;;;;;;4.25;2.15;;;;;;;14.39;82.64;101039.94;688737;28;1204;-43
2022/07/28 01:46:04;;;;;;;6.25;1.70;;;;;;;14.37;82.64;101039.06;688901;28;4283;-42
2022/07/28 01:46:25;;;;;;;3.55;1.30;;;;;;;14.37;81.97;101039.94;688954;28;1399;-43
2022/07/28 01:46:47;;;;;;;3.85;1.42;;;;;;;14.34;81.91;101039.13;689678;28;1134;-44
2022/07/28 01:47:09;;;;;;;4.35;1.52;;;;;;;14.30;82.55;101041.78;689620;28;1162;-43
2022/07/28 01:47:30;;;;;;;4.43;1.50;;;;;;;14.34;82.62;101041.75;690486;28;1047;-43
2022/07/28 01:47:54;;;;;;;3.75;1.42;;;;;;;14.28;83.62;101037.44;686015;28;1139;-43
2022/07/28 01:48:17;;;;;;;6.00;1.63;;;;;;;14.35;82.68;101052.25;683915;28;1227;-44
2022/07/28 01:48:41;;;;;;;6.70;1.60;;;;;;;14.32;83.54;101044.41;684754;28;1278;-43
2022/07/28 01:49:02;;;;;;;4.32;1.48;;;;;;;14.34;82.90;101033.84;684829;28;4291;-44
2022/07/28 01:49:25;;;;;;;4.43;1.60;;;;;;;14.40;82.26;101044.28;685363;28;1481;-45
2022/07/28 01:49:48;;;;;;;5.63;1.50;;;;;;;14.45;82.08;101037.19;687771;28;1022;-43
2022/07/28 01:50:11;;;;;;;4.90;1.60;;;;;;;14.44;81.85;101043.34;686841;28;1102;-42
2022/07/28 01:50:33;;;;;;;5.22;1.55;;;;;;;14.43;82.05;101041.63;683925;28;1101;-42
2022/07/28 01:50:56;;;;;;;4.80;1.50;;;;;;;14.40;82.23;101031.13;685610;28;1108;-46
2022/07/28 01:51:18;;;;;;;4.68;1.40;;;;;;;14.36;82.41;101042.56;684650;28;2014;-43
2022/07/28 01:51:40;;;;;;;4.38;1.48;;;;;;;14.41;82.30;101043.38;686490;28;940;-43
2022/07/28 01:52:05;;;;;;;3.67;1.40;;;;;;;14.40;83.01;101045.16;687077;28;1235;-43
2022/07/28 01:52:27;;;;;;;4.65;1.58;;;;;;;14.40;82.63;101045.16;690367;28;4899;-42
2022/07/28 01:52:49;;;;;;;4.70;1.55;;;;;;;14.38;82.26;101033.78;691970;28;1205;-42
2022/07/28 01:53:12;;;;;;;4.55;1.33;;;;;;;14.42;83.10;101040.72;691689;28;1023;-43
2022/07/28 01:53:35;;;;;;;5.03;1.50;;;;;;;14.43;82.57;101037.22;690847;28;1129;-45